createdAt,value
2018-04-23T00:00:39.941Z,8.48
2018-04-23T00:03:08.297Z,6.55
2018-04-23T00:05:36.510Z,7.55
2018-04-23T00:08:04.609Z,9.13
2018-04-23T00:10:33.901Z,7.75
2018-04-23T00:13:01.981Z,12.52
2018-04-23T00:15:30.053Z,6.87
2018-04-23T00:17:58.400Z,8.02
2018-04-23T00:20:26.490Z,8.85
2018-04-23T00:22:54.562Z,7.32
2018-04-23T00:25:22.628Z,6.62
2018-04-23T00:27:50.699Z,7.45
2018-04-23T00:30:18.770Z,8.23
2018-04-23T00:32:47.045Z,7.93
2018-04-23T00:35:15.121Z,8.60
2018-04-23T00:37:43.186Z,6.90
2018-04-23T00:40:11.272Z,9.07
2018-04-23T00:42:39.329Z,6.37
2018-04-23T00:45:07.405Z,9.60
2018-04-23T00:47:35.496Z,11.95
2018-04-23T00:50:04.308Z,7.15
2018-04-23T00:52:32.413Z,7.57
2018-04-23T00:55:01.657Z,8.73
2018-04-23T00:57:30.524Z,7.43
2018-04-23T00:59:58.617Z,6.65
2018-04-23T01:02:26.972Z,9.25
2018-04-23T01:04:55.046Z,8.68
2018-04-23T01:07:23.421Z,7.15
2018-04-23T01:09:51.796Z,8.82
2018-04-23T01:12:19.869Z,9.80
2018-04-23T01:14:47.965Z,6.80
2018-04-23T01:17:16.057Z,8.05
2018-04-23T01:19:44.899Z,7.62
2018-04-23T01:22:12.997Z,8.60
2018-04-23T01:24:41.330Z,11.52
2018-04-23T01:27:09.398Z,9.55
2018-04-23T01:29:37.475Z,7.53
2018-04-23T01:32:05.663Z,6.75
2018-04-23T01:34:33.765Z,6.37
2018-04-23T01:37:01.809Z,6.25
2018-04-23T01:39:30.079Z,9.48
2018-04-23T01:41:58.152Z,8.70
2018-04-23T01:44:26.224Z,9.52
2018-04-23T01:46:54.304Z,9.95
2018-04-23T01:49:22.961Z,6.37
2018-04-23T01:51:51.001Z,9.18
2018-04-23T01:54:19.854Z,7.87
2018-04-23T01:56:48.053Z,6.53
2018-04-23T01:59:16.916Z,7.70
2018-04-23T02:01:44.984Z,8.60
2018-04-23T02:04:13.044Z,9.70
2018-04-23T02:06:41.124Z,8.75
2018-04-23T02:09:09.726Z,6.75
2018-04-23T02:11:37.780Z,5.12
2018-04-23T02:14:05.843Z,6.53
2018-04-23T02:16:33.933Z,7.85
2018-04-23T02:19:01.993Z,7.70
2018-04-23T02:21:30.242Z,9.43
2018-04-23T02:23:58.336Z,6.25
2018-04-23T02:26:26.425Z,8.75
2018-04-23T02:28:54.500Z,7.78
2018-04-23T02:31:22.605Z,8.32
2018-04-23T02:33:51.436Z,6.93
2018-04-23T02:36:19.505Z,9.80
2018-04-23T02:38:47.921Z,9.82
2018-04-23T02:41:15.993Z,9.70
2018-04-23T02:43:44.064Z,9.05
2018-04-23T02:46:12.649Z,7.50
2018-04-23T02:48:40.716Z,10.68
2018-04-23T02:51:08.770Z,9.50
2018-04-23T02:53:36.939Z,9.85
2018-04-23T02:56:05.013Z,9.32
2018-04-23T02:58:33.116Z,8.15
2018-04-23T03:01:01.983Z,6.37
2018-04-23T03:03:30.056Z,7.68
2018-04-23T03:05:58.126Z,6.97
2018-04-23T03:08:26.370Z,7.78
2018-04-23T03:10:54.700Z,9.67
2018-04-23T03:13:22.825Z,8.05
2018-04-23T03:15:51.252Z,7.75
2018-04-23T03:18:20.145Z,7.83
2018-04-23T03:20:49.012Z,7.93
2018-04-23T03:23:17.076Z,11.02
2018-04-23T03:25:45.145Z,8.27
2018-04-23T03:28:13.243Z,11.43
2018-04-23T03:30:41.627Z,6.55
2018-04-23T03:33:10.513Z,9.48
2018-04-23T03:35:38.753Z,10.13
2018-04-23T03:38:06.833Z,9.75
2018-04-23T03:40:34.938Z,8.60
2018-04-23T03:43:03.797Z,6.60
2018-04-23T03:45:31.953Z,7.70
2018-04-23T03:48:00.018Z,7.60
2018-04-23T03:50:28.097Z,8.98
2018-04-23T03:52:56.521Z,7.95
2018-04-23T03:55:25.401Z,8.90
2018-04-23T03:57:53.491Z,8.60
2018-04-23T04:00:24.729Z,7.97
2018-04-23T04:02:53.563Z,8.30
2018-04-23T04:05:21.645Z,12.03
2018-04-23T04:07:49.769Z,9.33
2018-04-23T04:10:18.659Z,13.17
2018-04-23T04:12:47.715Z,6.55
2018-04-23T04:15:16.293Z,6.73
2018-04-23T04:17:45.498Z,12.33
2018-04-23T04:20:13.665Z,10.63
2018-04-23T04:22:41.835Z,6.87
2018-04-23T04:25:09.941Z,9.07
2018-04-23T04:27:38.900Z,11.50
2018-04-23T04:30:07.072Z,9.10
2018-04-23T04:35:10.285Z,7.10
2018-04-23T04:37:38.352Z,11.67
2018-04-23T04:40:06.421Z,14.27
2018-04-23T04:42:34.509Z,9.73
2018-04-23T04:45:02.562Z,8.80
2018-04-23T04:47:30.644Z,8.67
2018-04-23T04:49:58.733Z,9.35
2018-04-23T04:52:26.805Z,9.23
2018-04-23T04:54:54.880Z,13.35
2018-04-23T04:57:23.226Z,8.88
2018-04-23T04:59:51.341Z,11.85
2018-04-23T05:02:19.416Z,6.60
2018-04-23T05:04:48.362Z,7.55
2018-04-23T05:07:16.433Z,10.00
2018-04-23T05:09:44.505Z,18.52
2018-04-23T05:12:12.913Z,11.93
2018-04-23T05:14:40.969Z,15.37
2018-04-23T05:17:09.029Z,13.30
2018-04-23T05:19:37.824Z,15.67
2018-04-23T05:22:06.910Z,12.90
2018-04-23T05:24:35.625Z,12.83
2018-04-23T05:27:04.324Z,13.63
2018-04-23T05:29:32.761Z,16.73
2018-04-23T05:32:02.234Z,13.53
2018-04-23T05:34:31.681Z,12.03
2018-04-23T05:37:00.472Z,12.53
2018-04-23T05:39:29.289Z,12.30
2018-04-23T05:41:58.552Z,12.03
2018-04-23T05:44:27.276Z,13.57
2018-04-23T05:46:56.764Z,16.33
2018-04-23T05:49:25.364Z,13.10
2018-04-23T05:51:54.933Z,13.43
2018-04-23T05:54:23.434Z,11.77
2018-04-23T05:56:52.140Z,13.83
2018-04-23T05:59:20.827Z,16.00
2018-04-23T06:01:49.573Z,13.87
2018-04-23T06:04:17.965Z,14.93
2018-04-23T06:06:46.841Z,13.13
2018-04-23T06:09:15.733Z,13.23
2018-04-23T06:11:44.148Z,13.47
2018-04-23T06:14:12.529Z,15.17
2018-04-23T06:16:41.193Z,13.47
2018-04-23T06:19:09.797Z,13.47
2018-04-23T06:21:38.208Z,12.97
2018-04-23T06:24:06.762Z,13.00
2018-04-23T06:26:35.617Z,13.47
2018-04-23T06:29:05.115Z,15.57
2018-04-23T06:31:34.024Z,15.17
2018-04-23T06:34:02.838Z,15.47
2018-04-23T06:36:32.813Z,13.80
2018-04-23T06:39:02.684Z,11.83
2018-04-23T06:41:31.273Z,12.93
2018-04-23T06:44:00.097Z,13.82
2018-04-23T06:46:29.029Z,12.88
2018-04-23T06:48:57.673Z,12.73
2018-04-23T06:51:25.740Z,11.45
2018-04-23T06:53:54.429Z,13.80
2018-04-23T06:56:22.533Z,13.62
2018-04-23T06:58:50.598Z,13.95
2018-04-23T07:01:19.364Z,13.85
2018-04-23T07:03:48.340Z,15.05
2018-04-23T07:06:16.741Z,14.70
2018-04-23T07:08:46.382Z,16.40
2018-04-23T07:11:15.192Z,12.90
2018-04-23T07:13:43.747Z,12.63
2018-04-23T07:16:11.800Z,11.18
2018-04-23T07:18:40.364Z,15.80
2018-04-23T07:21:09.045Z,12.37
2018-04-23T07:23:38.031Z,15.07
2018-04-23T07:26:06.932Z,13.95
2018-04-23T07:28:35.485Z,14.23
2018-04-23T07:31:03.585Z,11.30
2018-04-23T07:33:32.496Z,13.25
2018-04-23T07:36:01.310Z,15.18
2018-04-23T07:38:29.897Z,13.18
2018-04-23T07:40:58.676Z,12.82
2018-04-23T07:43:28.144Z,14.82
2018-04-23T07:45:56.981Z,15.07
2018-04-23T07:48:26.490Z,13.77
2018-04-23T07:50:56.295Z,13.73
2018-04-23T07:53:26.361Z,11.75
2018-04-23T07:55:55.148Z,12.52
2018-04-23T07:58:23.817Z,10.07
2018-04-23T08:00:52.671Z,15.38
2018-04-23T08:03:20.823Z,12.25
2018-04-23T08:05:49.080Z,13.55
2018-04-23T08:08:17.252Z,10.55
2018-04-23T08:10:46.253Z,13.18
2018-04-23T08:13:14.330Z,11.00
2018-04-23T08:15:42.811Z,12.27
2018-04-23T08:18:11.994Z,11.38
2018-04-23T08:20:41.196Z,12.23
2018-04-23T08:23:09.979Z,14.18
2018-04-23T08:25:38.409Z,12.70
2018-04-23T08:28:07.274Z,13.70
2018-04-23T08:30:35.948Z,12.80
2018-04-23T08:33:04.817Z,11.75
2018-04-23T08:35:33.966Z,11.60
2018-04-23T08:38:03.008Z,15.05
2018-04-23T08:40:31.824Z,16.27
2018-04-23T08:43:00.854Z,14.98
2018-04-23T08:45:30.372Z,10.60
2018-04-23T08:48:00.187Z,12.43
2018-04-23T08:50:29.136Z,13.60
2018-04-23T08:52:57.724Z,11.32
2018-04-23T08:55:26.528Z,14.38
2018-04-23T08:57:56.415Z,13.80
2018-04-23T09:00:25.315Z,15.27
2018-04-23T09:02:54.108Z,13.40
2018-04-23T09:05:23.015Z,14.70
2018-04-23T09:07:52.599Z,15.32
2018-04-23T09:10:21.480Z,17.65
2018-04-23T09:12:49.663Z,16.30
2018-04-23T09:15:18.482Z,16.05
2018-04-23T09:17:47.959Z,13.55
2018-04-23T09:20:16.865Z,13.20
2018-04-23T09:22:45.620Z,13.15
2018-04-23T09:25:14.586Z,14.27
2018-04-23T09:27:43.537Z,13.77
2018-04-23T09:30:13.015Z,14.73
2018-04-23T09:32:41.531Z,14.30
2018-04-23T09:35:11.208Z,15.57
2018-04-23T09:37:40.253Z,12.18
2018-04-23T09:40:09.829Z,10.88
2018-04-23T09:42:39.088Z,13.60
2018-04-23T09:45:08.129Z,16.12
2018-04-23T09:47:36.814Z,11.75
2018-04-23T09:50:05.749Z,13.52
2018-04-23T09:52:35.316Z,14.38
2018-04-23T09:55:04.149Z,11.85
2018-04-23T09:57:33.001Z,9.90
2018-04-23T10:00:03.174Z,14.05
2018-04-23T10:02:31.949Z,13.13
2018-04-23T10:05:00.121Z,11.70
2018-04-23T10:07:29.372Z,11.57
2018-04-23T10:09:59.197Z,12.65
2018-04-23T10:12:28.661Z,11.73
2018-04-23T10:14:57.549Z,10.95
2018-04-23T10:17:26.270Z,17.50
2018-04-23T10:19:55.788Z,13.98
2018-04-23T10:22:24.665Z,11.93
2018-04-23T10:24:53.237Z,14.40
2018-04-23T10:27:21.294Z,15.60
2018-04-23T10:29:50.273Z,15.85
2018-04-23T10:32:18.372Z,14.23
2018-04-23T10:34:47.277Z,13.82
2018-04-23T10:37:15.317Z,17.05
2018-04-23T10:39:44.133Z,13.55
2018-04-23T10:42:12.922Z,17.00
2018-04-23T10:44:41.813Z,17.40
2018-04-23T10:47:11.510Z,15.13
2018-04-23T10:49:39.671Z,13.70
2018-04-23T10:52:09.106Z,14.77
2018-04-23T10:54:38.612Z,14.93
2018-04-23T10:57:08.222Z,13.60
2018-04-23T10:59:37.720Z,14.40
2018-04-23T11:02:06.559Z,12.82
2018-04-23T11:04:35.503Z,15.07
2018-04-23T11:07:05.101Z,14.13
2018-04-23T11:09:34.097Z,17.12
2018-04-23T11:12:02.657Z,15.57
2018-04-23T11:14:31.784Z,13.62
2018-04-23T11:17:00.692Z,13.55
2018-04-23T11:19:29.617Z,12.32
2018-04-23T11:21:58.221Z,14.52
2018-04-23T11:24:26.328Z,14.30
2018-04-23T11:33:42.061Z,13.23
2018-04-23T11:36:11.761Z,12.77
2018-04-23T11:38:41.506Z,16.55
2018-04-23T11:41:10.373Z,11.88
2018-04-23T11:43:39.152Z,16.87
2018-04-23T11:46:08.802Z,11.73
2018-04-23T11:48:38.520Z,13.70
2018-04-23T11:51:07.211Z,13.10
2018-04-23T11:53:35.324Z,16.20
2018-04-23T11:56:04.749Z,12.60
2018-04-23T11:58:34.221Z,13.55
2018-04-23T12:01:03.941Z,12.60
2018-04-23T12:03:33.347Z,16.37
2018-04-23T12:06:03.053Z,14.57
2018-04-23T12:08:32.405Z,15.95
2018-04-23T12:11:01.035Z,14.50
2018-04-23T12:13:29.908Z,15.57
2018-04-23T12:15:58.008Z,16.15
2018-04-23T12:18:27.412Z,15.90
2018-04-23T12:20:57.016Z,17.58
2018-04-23T12:23:26.790Z,14.43
2018-04-23T12:25:55.896Z,17.12
2018-04-23T12:28:24.387Z,12.27
2018-04-23T12:30:52.952Z,14.30
2018-04-23T12:33:21.061Z,13.73
2018-04-23T12:35:50.945Z,13.90
2018-04-23T12:38:19.037Z,13.52
2018-04-23T12:40:48.480Z,18.35
2018-04-23T12:43:16.824Z,15.68
2018-04-23T12:45:45.660Z,17.55
2018-04-23T12:48:14.397Z,20.08
2018-04-23T12:50:42.937Z,14.15
2018-04-23T12:53:11.869Z,17.87
2018-04-23T12:55:41.465Z,19.75
2018-04-23T12:58:09.542Z,18.77
2018-04-23T13:00:38.341Z,14.10
2018-04-23T13:03:07.745Z,17.60
2018-04-23T13:05:36.616Z,15.70
2018-04-23T13:08:04.686Z,13.07
2018-04-23T13:10:33.595Z,19.23
2018-04-23T13:13:02.234Z,16.37
2018-04-23T13:15:30.821Z,17.52
2018-04-23T13:18:00.528Z,15.30
2018-04-23T13:20:28.631Z,18.85
2018-04-23T13:22:57.517Z,16.77
2018-04-23T13:25:27.449Z,14.50
2018-04-23T13:27:57.441Z,11.90
2018-04-23T13:30:25.538Z,11.75
2018-04-23T13:32:54.241Z,14.02
2018-04-23T13:35:23.813Z,14.15
2018-04-23T13:37:52.909Z,13.77
2018-04-23T13:40:20.999Z,14.38
2018-04-23T13:42:50.552Z,17.70
2018-04-23T13:45:18.642Z,14.93
2018-04-23T13:47:47.449Z,11.48
2018-04-23T13:50:16.259Z,19.27
2018-04-23T13:52:46.136Z,14.73
2018-04-23T13:55:14.200Z,16.23
2018-04-23T13:57:43.820Z,16.20
2018-04-23T14:00:12.793Z,12.50
2018-04-23T14:02:42.320Z,19.08
2018-04-23T14:05:10.385Z,16.95
2018-04-23T14:07:39.060Z,17.23
2018-04-23T14:10:07.157Z,17.23
2018-04-23T14:12:35.241Z,19.90
2018-04-23T14:15:03.340Z,20.33
2018-04-23T14:17:32.313Z,18.42
2018-04-23T14:20:02.821Z,17.20
2018-04-23T14:22:33.453Z,15.20
2018-04-23T14:25:01.537Z,15.45
2018-04-23T14:27:29.963Z,16.12
2018-04-23T14:29:58.038Z,15.90
2018-04-23T14:32:26.109Z,18.42
2018-04-23T14:34:54.429Z,12.15
2018-04-23T14:37:22.480Z,13.60
2018-04-23T14:39:50.541Z,12.13
2018-04-23T14:42:18.863Z,13.82
2018-04-23T14:44:48.641Z,12.32
2018-04-23T14:47:16.701Z,12.32
2018-04-23T14:49:45.821Z,9.15
2018-04-23T14:52:14.921Z,13.23
2018-04-23T14:54:42.989Z,11.73
2018-04-23T14:57:11.038Z,15.98
2018-04-23T14:59:39.105Z,11.20
2018-04-23T15:02:07.205Z,12.40
2018-04-23T15:04:35.245Z,12.75
2018-04-23T15:07:04.033Z,11.75
2018-04-23T15:09:32.852Z,14.38
2018-04-23T15:12:01.805Z,14.18
2018-04-23T15:14:30.501Z,13.95
2018-04-23T15:16:58.573Z,11.35
2018-04-23T15:19:27.297Z,12.75
2018-04-23T15:21:56.647Z,12.70
2018-04-23T15:24:24.717Z,10.95
2018-04-23T15:26:53.853Z,11.95
2018-04-23T15:29:22.862Z,18.85
2018-04-23T15:31:51.752Z,13.73
2018-04-23T15:34:20.645Z,12.20
2018-04-23T15:36:48.714Z,13.05
2018-04-23T15:39:17.914Z,13.00
2018-04-23T15:41:47.525Z,15.13
2018-04-23T15:44:16.398Z,16.65
2018-04-23T15:46:46.590Z,10.82
2018-04-23T15:49:14.672Z,8.88
2018-04-23T15:51:43.700Z,12.35
2018-04-23T15:54:12.544Z,9.65
2018-04-23T15:56:40.685Z,10.23
2018-04-23T15:59:09.096Z,12.35
2018-04-23T16:01:38.033Z,10.02
2018-04-23T16:04:06.892Z,11.57
2018-04-23T16:06:34.989Z,12.95
2018-04-23T16:09:03.812Z,14.68
2018-04-23T16:11:31.906Z,12.05
2018-04-23T16:13:59.973Z,14.48
2018-04-23T16:16:28.405Z,9.57
2018-04-23T16:18:56.489Z,10.40
2018-04-23T16:21:25.355Z,17.12
2018-04-23T16:23:54.157Z,14.35
2018-04-23T16:26:22.217Z,16.83
2018-04-23T16:28:50.289Z,17.33
2018-04-23T16:31:18.637Z,13.02
2018-04-23T16:33:46.734Z,14.32
2018-04-23T16:36:14.870Z,15.10
2018-04-23T16:38:43.289Z,12.52
2018-04-23T16:41:11.381Z,10.15
2018-04-23T16:43:40.265Z,16.27
2018-04-23T16:46:09.357Z,14.95
2018-04-23T16:48:37.617Z,15.60
2018-04-23T16:51:05.709Z,13.82
2018-04-23T16:53:34.073Z,12.75
2018-04-23T16:56:02.161Z,16.75
2018-04-23T16:58:31.020Z,14.07
2018-04-23T17:00:59.178Z,14.60
2018-04-23T17:03:27.993Z,12.13
2018-04-23T17:05:56.056Z,14.05
2018-04-23T17:08:24.252Z,16.45
2018-04-23T17:10:52.344Z,12.25
2018-04-23T17:13:21.424Z,15.25
2018-04-23T17:15:49.510Z,12.32
2018-04-23T17:18:18.366Z,13.45
2018-04-23T17:20:46.978Z,14.48
2018-04-23T17:23:15.829Z,10.82
2018-04-23T17:25:43.945Z,14.07
2018-04-23T17:28:13.029Z,10.70
2018-04-23T17:30:41.916Z,19.50
2018-04-23T17:33:09.979Z,11.02
2018-04-23T17:35:38.955Z,12.45
2018-04-23T17:38:07.065Z,11.65
2018-04-23T17:40:35.919Z,12.32
2018-04-23T17:43:04.009Z,12.07
2018-04-23T17:45:32.097Z,11.12
2018-04-23T17:48:00.948Z,16.25
2018-04-23T17:50:29.409Z,13.93
2018-04-23T17:52:57.497Z,11.48
2018-04-23T17:55:25.621Z,15.65
2018-04-23T17:57:54.929Z,13.25
2018-04-23T18:00:23.177Z,13.15
2018-04-23T18:02:51.256Z,11.75
2018-04-23T18:05:20.124Z,14.85
2018-04-23T18:07:48.196Z,9.15
2018-04-23T18:10:16.281Z,10.93
2018-04-23T18:12:44.385Z,11.48
2018-04-23T18:15:12.474Z,15.15
2018-04-23T18:17:40.563Z,12.30
2018-04-23T18:20:08.869Z,10.50
2018-04-23T18:22:36.940Z,11.00
2018-04-23T18:25:05.033Z,14.45
2018-04-23T18:27:33.980Z,12.73
2018-04-23T18:30:02.858Z,14.10
2018-04-23T18:32:30.933Z,12.80
2018-04-23T18:34:59.018Z,10.05
2018-04-23T18:37:27.423Z,12.93
2018-04-23T18:39:55.516Z,6.97
2018-04-23T18:42:24.340Z,11.10
2018-04-23T18:44:52.436Z,8.23
2018-04-23T18:47:20.530Z,7.30
2018-04-23T18:49:48.657Z,10.35
2018-04-23T18:52:17.805Z,14.05
2018-04-23T18:54:46.665Z,10.75
2018-04-23T18:57:14.766Z,12.05
2018-04-23T18:59:43.965Z,13.27
2018-04-23T19:02:12.858Z,11.10
2018-04-23T19:04:41.716Z,10.55
2018-04-23T19:07:10.094Z,12.45
2018-04-23T19:09:39.689Z,9.95
2018-04-23T19:12:07.773Z,7.93
2018-04-23T19:14:35.915Z,10.45
2018-04-23T19:17:04.005Z,10.27
2018-04-23T19:19:32.228Z,10.52
2018-04-23T19:22:00.387Z,7.03
2018-04-23T19:24:28.429Z,9.73
2018-04-23T19:26:56.512Z,8.25
2018-04-23T19:29:24.585Z,12.53
2018-04-23T19:31:53.551Z,7.93
2018-04-23T19:34:21.653Z,6.90
2018-04-23T19:36:50.133Z,10.18
2018-04-23T19:39:18.225Z,10.70
2018-04-23T19:41:47.117Z,7.17
2018-04-23T19:44:16.012Z,10.87
2018-04-23T19:46:44.873Z,8.43
2018-04-23T19:49:12.950Z,12.25
2018-04-23T19:51:41.295Z,8.70
2018-04-23T19:54:09.413Z,9.80
2018-04-23T19:56:38.392Z,6.47
2018-04-23T19:59:06.481Z,8.17
2018-04-23T20:01:35.373Z,11.17
2018-04-23T20:04:04.540Z,9.47
2018-04-23T20:06:32.621Z,7.00
2018-04-23T20:09:00.680Z,8.83
2018-04-23T20:11:29.089Z,7.00
2018-04-23T20:13:57.928Z,9.47
2018-04-23T20:16:26.012Z,7.03
2018-04-23T20:18:54.429Z,5.60
2018-04-23T20:21:23.416Z,7.93
2018-04-23T20:23:51.494Z,8.23
2018-04-23T20:26:20.354Z,8.73
2018-04-23T20:28:48.420Z,6.50
2018-04-23T20:31:16.518Z,8.93
2018-04-23T20:33:45.691Z,8.83
2018-04-23T20:36:13.786Z,7.87
2018-04-23T20:38:42.659Z,5.83
2018-04-23T20:41:11.013Z,7.43
2018-04-23T20:43:39.077Z,6.20
2018-04-23T20:46:07.192Z,6.70
2018-04-23T20:48:35.747Z,7.40
2018-04-23T20:51:03.810Z,11.33
2018-04-23T20:53:31.901Z,7.90
2018-04-23T20:55:59.989Z,9.30
2018-04-23T20:58:28.048Z,7.07
2018-04-23T21:00:56.105Z,8.93
2018-04-23T21:03:24.188Z,8.10
2018-04-23T21:05:52.299Z,11.43
2018-04-23T21:08:21.161Z,10.57
2018-04-23T21:10:49.567Z,6.77
2018-04-23T21:13:18.420Z,6.43
2018-04-23T21:15:46.477Z,6.93
2018-04-23T21:18:14.857Z,7.60
2018-04-23T21:20:42.951Z,8.07
2018-04-23T21:23:11.017Z,8.33
2018-04-23T21:25:39.345Z,7.27
2018-04-23T21:28:08.232Z,6.83
2018-04-23T21:30:36.248Z,6.90
2018-04-23T21:33:04.624Z,7.13
2018-04-23T21:35:32.696Z,5.83
2018-04-23T21:38:00.790Z,7.30
2018-04-23T21:40:28.896Z,8.23
2018-04-23T21:42:57.741Z,6.37
2018-04-23T21:45:25.800Z,9.17
2018-04-23T21:47:54.077Z,6.13
2018-04-23T21:50:22.160Z,7.30
2018-04-23T21:52:50.216Z,6.43
2018-04-23T21:55:18.298Z,8.27
2018-04-23T21:57:46.369Z,9.57
2018-04-23T22:00:14.849Z,7.07
2018-04-23T22:02:43.332Z,7.83
2018-04-23T22:05:11.310Z,6.17
2018-04-23T22:07:39.393Z,8.83
2018-04-23T22:10:07.942Z,6.20
2018-04-23T22:12:36.004Z,7.13
2018-04-23T22:15:04.388Z,7.30
2018-04-23T22:17:32.813Z,7.20
2018-04-23T22:20:00.894Z,8.47
2018-04-23T22:22:29.746Z,9.37
2018-04-23T22:24:58.022Z,8.50
2018-04-23T22:27:26.081Z,12.60
2018-04-23T22:29:54.171Z,6.13
2018-04-23T22:32:22.765Z,4.30
2018-04-23T22:34:50.861Z,6.80
2018-04-23T22:37:19.719Z,9.90
2018-04-23T22:39:48.044Z,5.27
2018-04-23T22:42:16.864Z,7.10
2018-04-23T22:44:44.949Z,6.83
2018-04-23T22:47:13.037Z,6.80
2018-04-23T22:49:41.117Z,5.27
2018-04-23T22:52:09.160Z,8.80
2018-04-23T22:54:37.760Z,4.10
2018-04-23T22:57:07.352Z,5.27
2018-04-23T22:59:35.441Z,5.53
2018-04-23T23:02:03.616Z,6.43
2018-04-23T23:04:31.688Z,5.70
2018-04-23T23:06:59.799Z,5.13
2018-04-23T23:09:27.845Z,5.73
2018-04-23T23:11:56.705Z,5.63
2018-04-23T23:14:25.006Z,5.60
2018-04-23T23:16:54.072Z,6.43
2018-04-23T23:19:22.177Z,15.70
2018-04-23T23:21:51.013Z,6.17
2018-04-23T23:24:19.125Z,8.00
2018-04-23T23:26:47.209Z,7.13
2018-04-23T23:29:16.069Z,5.20
2018-04-23T23:31:44.233Z,9.50
2018-04-23T23:34:12.313Z,6.30
2018-04-23T23:36:40.377Z,6.17
2018-04-23T23:39:08.654Z,6.27
2018-04-23T23:41:36.712Z,6.17
2018-04-23T23:44:04.781Z,6.33
2018-04-23T23:46:33.114Z,7.97
2018-04-23T23:49:01.969Z,8.50
2018-04-23T23:51:30.073Z,8.40
2018-04-23T23:53:58.399Z,6.00
2018-04-23T23:56:26.485Z,8.57
2018-04-23T23:58:54.565Z,6.67
